createdAt,value
2018-12-12T00:01:18.041Z,8.07
2018-12-12T00:03:51.203Z,8.80
2018-12-12T00:06:24.240Z,7.90
2018-12-12T00:08:57.201Z,7.20
2018-12-12T00:11:29.369Z,7.67
2018-12-12T00:14:05.788Z,7.77
2018-12-12T00:16:38.828Z,7.47
2018-12-12T00:19:11.906Z,8.13
2018-12-12T00:21:44.216Z,7.70
2018-12-12T00:24:16.461Z,7.50
2018-12-12T00:26:49.376Z,7.77
2018-12-12T00:29:22.542Z,7.37
2018-12-12T00:31:54.787Z,7.17
2018-12-12T00:34:27.130Z,6.93
2018-12-12T00:36:59.321Z,7.43
2018-12-12T00:39:31.439Z,7.07
2018-12-12T00:42:03.784Z,7.77
2018-12-12T00:44:36.228Z,6.70
2018-12-12T00:47:08.725Z,7.77
2018-12-12T00:49:41.025Z,6.83
2018-12-12T00:52:13.082Z,7.10
2018-12-12T00:54:45.480Z,6.87
2018-12-12T00:57:19.115Z,7.17
2018-12-12T00:59:51.425Z,6.03
2018-12-12T01:02:24.387Z,6.17
2018-12-12T01:04:54.918Z,6.50
2018-12-12T01:07:27.898Z,6.57
2018-12-12T01:10:00.505Z,5.63
2018-12-12T01:12:36.923Z,6.07
2018-12-12T01:15:09.257Z,6.43
2018-12-12T01:17:42.192Z,6.83
2018-12-12T01:20:14.658Z,5.90
2018-12-12T01:22:47.462Z,6.10
2018-12-12T01:25:19.732Z,6.33
2018-12-12T01:27:52.723Z,7.10
2018-12-12T01:30:29.706Z,6.97
2018-12-12T01:33:00.034Z,6.30
2018-12-12T01:35:36.515Z,6.07
2018-12-12T01:38:08.873Z,6.40
2018-12-12T01:40:41.599Z,6.73
2018-12-12T01:43:17.745Z,7.17
2018-12-12T01:45:50.834Z,6.07
2018-12-12T01:48:23.090Z,6.47
2018-12-12T01:50:55.283Z,6.63
2018-12-12T01:53:28.019Z,6.87
2018-12-12T01:56:00.538Z,6.33
2018-12-12T01:58:32.846Z,7.03
2018-12-12T02:01:05.391Z,6.73
2018-12-12T02:03:38.327Z,6.40
2018-12-12T02:06:11.227Z,6.47
2018-12-12T02:08:44.336Z,6.80
2018-12-12T02:11:16.460Z,6.87
2018-12-12T02:13:49.031Z,6.00
2018-12-12T02:16:22.044Z,6.00
2018-12-12T02:18:54.958Z,6.73
2018-12-12T02:21:27.670Z,6.70
2018-12-12T02:24:00.261Z,6.43
2018-12-12T02:26:32.513Z,6.37
2018-12-12T02:29:05.303Z,6.20
2018-12-12T02:31:37.526Z,6.47
2018-12-12T02:34:09.975Z,6.23
2018-12-12T02:36:42.434Z,5.93
2018-12-12T02:39:14.717Z,5.77
2018-12-12T02:41:47.955Z,6.37
2018-12-12T02:51:58.611Z,4.83
2018-12-12T02:54:31.001Z,5.40
2018-12-12T02:57:04.037Z,4.50
2018-12-12T02:59:37.271Z,4.10
2018-12-12T03:02:07.913Z,4.30
2018-12-12T03:04:40.771Z,4.60
2018-12-12T03:07:17.037Z,4.47
2018-12-12T03:09:49.332Z,4.90
2018-12-12T03:12:19.615Z,4.07
2018-12-12T03:14:51.868Z,4.47
2018-12-12T03:17:24.305Z,3.83
2018-12-12T03:19:57.023Z,4.60
2018-12-12T03:22:29.732Z,4.63
2018-12-12T03:25:02.194Z,4.07
2018-12-12T03:27:34.572Z,4.30
2018-12-12T03:30:07.100Z,4.37
2018-12-12T03:32:39.750Z,3.90
2018-12-12T03:35:12.655Z,3.80
2018-12-12T03:37:45.447Z,4.57
2018-12-12T03:40:18.321Z,4.50
2018-12-12T03:42:51.520Z,4.57
2018-12-12T03:45:24.233Z,3.93
2018-12-12T03:47:57.280Z,4.10
2018-12-12T03:50:30.362Z,4.00
2018-12-12T03:53:03.470Z,3.53
2018-12-12T03:55:36.557Z,4.00
2018-12-12T03:58:09.241Z,3.63
2018-12-12T04:00:41.504Z,4.33
2018-12-12T04:03:17.858Z,3.80
2018-12-12T04:05:50.084Z,4.00
2018-12-12T04:08:22.548Z,4.80
2018-12-12T04:10:55.658Z,4.93
2018-12-12T04:13:27.981Z,4.00
2018-12-12T04:16:01.112Z,4.20
2018-12-12T04:18:33.316Z,4.83
2018-12-12T04:21:05.660Z,4.80
2018-12-12T04:23:37.909Z,4.50
2018-12-12T04:26:14.246Z,5.13
2018-12-12T04:28:46.730Z,4.40
2018-12-12T04:31:18.858Z,4.50
2018-12-12T04:33:51.108Z,4.67
2018-12-12T04:36:23.476Z,4.43
2018-12-12T04:38:56.328Z,4.60
2018-12-12T04:41:28.538Z,5.00
2018-12-12T04:44:01.526Z,4.53
2018-12-12T04:46:34.448Z,4.97
2018-12-12T04:49:06.735Z,4.63
2018-12-12T04:51:39.740Z,5.17
2018-12-12T04:54:12.823Z,5.00
2018-12-12T04:56:49.192Z,5.00
2018-12-12T04:59:21.744Z,6.87
2018-12-12T05:01:54.846Z,5.40
2018-12-12T05:04:27.243Z,4.67
2018-12-12T05:07:00.320Z,4.63
2018-12-12T05:09:34.173Z,4.33
2018-12-12T05:12:06.626Z,4.73
2018-12-12T05:14:39.544Z,4.10
2018-12-12T05:17:11.930Z,4.60
2018-12-12T05:19:45.049Z,4.40
2018-12-12T05:22:17.448Z,4.93
2018-12-12T05:24:49.821Z,4.70
2018-12-12T05:27:22.211Z,3.80
2018-12-12T05:29:55.461Z,4.53
2018-12-12T05:32:27.684Z,4.90
2018-12-12T05:35:00.856Z,3.90
2018-12-12T05:37:33.025Z,4.50
2018-12-12T05:40:09.489Z,4.07
2018-12-12T05:42:42.669Z,4.03
2018-12-12T05:45:15.451Z,4.20
2018-12-12T05:47:47.919Z,3.77
2018-12-12T05:50:20.348Z,3.87
2018-12-12T05:52:52.532Z,3.57
2018-12-12T05:57:57.719Z,3.97
2018-12-12T06:00:30.664Z,4.00
2018-12-12T06:03:03.004Z,4.57
2018-12-12T06:05:35.322Z,6.50
2018-12-12T06:08:08.069Z,5.70
2018-12-12T06:10:40.766Z,3.87
2018-12-12T06:13:12.971Z,3.63
2018-12-12T06:15:45.417Z,3.87
2018-12-12T06:18:18.195Z,4.10
2018-12-12T06:20:50.537Z,3.67
2018-12-12T06:23:27.105Z,4.30
2018-12-12T06:25:59.287Z,3.53
2018-12-12T06:28:31.512Z,3.60
2018-12-12T06:31:03.853Z,3.97
2018-12-12T06:33:36.664Z,3.47
2018-12-12T06:36:09.320Z,4.80
2018-12-12T06:38:41.577Z,5.27
2018-12-12T06:41:14.544Z,5.43
2018-12-12T06:43:47.428Z,5.97
2018-12-12T06:46:20.530Z,6.70
2018-12-12T06:48:52.825Z,6.77
2018-12-12T06:51:25.307Z,7.47
2018-12-12T06:53:57.559Z,6.20
2018-12-12T06:56:33.821Z,10.40
2018-12-12T06:59:06.950Z,5.57
2018-12-12T07:06:43.606Z,4.87
2018-12-12T07:09:16.948Z,4.90
2018-12-12T07:11:49.933Z,4.97
2018-12-12T07:14:23.060Z,5.03
2018-12-12T07:16:56.263Z,4.60
2018-12-12T07:19:29.211Z,4.30
2018-12-12T07:22:01.562Z,5.37
2018-12-12T07:24:38.685Z,9.27
2018-12-12T07:27:09.724Z,4.77
2018-12-12T07:29:42.220Z,5.20
2018-12-12T07:32:15.369Z,5.10
2018-12-12T07:34:46.282Z,4.77
2018-12-12T07:37:18.748Z,4.90
2018-12-12T07:39:51.219Z,4.97
2018-12-12T07:42:23.425Z,4.53
2018-12-12T07:44:56.012Z,4.67
2018-12-12T07:47:28.909Z,10.40
2018-12-12T07:50:01.276Z,11.00
2018-12-12T07:52:37.616Z,6.10
2018-12-12T07:55:10.829Z,6.93
2018-12-12T07:57:47.673Z,4.43
2018-12-12T08:00:19.159Z,5.10
2018-12-12T08:02:52.203Z,4.03
2018-12-12T08:05:25.348Z,3.97
2018-12-12T08:07:58.400Z,3.70
2018-12-12T08:10:30.744Z,3.83
2018-12-12T08:13:03.639Z,3.20
2018-12-12T08:15:35.962Z,3.27
2018-12-12T08:18:13.262Z,4.10
2018-12-12T08:20:45.402Z,4.60
2018-12-12T08:23:18.042Z,3.17
2018-12-12T08:25:51.024Z,3.37
2018-12-12T08:28:23.548Z,3.23
2018-12-12T08:30:55.954Z,2.93
2018-12-12T08:33:28.452Z,2.90
2018-12-12T08:36:00.960Z,2.90
2018-12-12T08:38:33.150Z,3.80
2018-12-12T08:41:06.241Z,11.10
2018-12-12T08:43:38.510Z,4.63
2018-12-12T08:46:11.899Z,7.67
2018-12-12T08:48:44.952Z,11.17
2018-12-12T08:51:18.088Z,3.90
2018-12-12T08:53:50.976Z,3.10
2018-12-12T08:56:28.389Z,2.80
2018-12-12T08:59:00.894Z,2.80
2018-12-12T09:01:38.037Z,3.00
2018-12-12T09:04:10.569Z,2.43
2018-12-12T09:06:43.599Z,2.80
2018-12-12T09:09:16.096Z,3.20
2018-12-12T09:11:52.916Z,3.57
2018-12-12T09:14:25.887Z,3.63
2018-12-12T09:17:02.264Z,3.17
2018-12-12T09:19:35.372Z,3.20
2018-12-12T09:22:07.724Z,6.10
2018-12-12T09:24:39.975Z,3.80
2018-12-12T09:27:12.996Z,4.10
2018-12-12T09:29:46.181Z,4.33
2018-12-12T09:32:19.088Z,3.53
2018-12-12T09:34:55.588Z,3.43
2018-12-12T09:37:29.307Z,3.70
2018-12-12T09:40:01.980Z,3.07
2018-12-12T09:42:34.727Z,3.87
2018-12-12T09:45:07.778Z,3.67
2018-12-12T09:47:40.805Z,4.03
2018-12-12T09:50:13.196Z,2.90
2018-12-12T09:52:45.652Z,3.63
2018-12-12T09:55:17.792Z,3.30
2018-12-12T09:57:50.672Z,3.10
2018-12-12T10:00:23.408Z,3.17
2018-12-12T10:03:00.576Z,3.57
2018-12-12T10:05:32.723Z,4.10
2018-12-12T10:08:05.215Z,4.37
2018-12-12T10:10:37.552Z,4.57
2018-12-12T10:13:14.241Z,5.30
2018-12-12T10:15:47.180Z,5.20
2018-12-12T10:18:20.549Z,5.50
2018-12-12T10:20:53.484Z,5.57
2018-12-12T10:23:26.551Z,5.20
2018-12-12T10:25:58.663Z,5.33
2018-12-12T10:28:34.946Z,4.80
2018-12-12T10:31:07.984Z,4.17
2018-12-12T10:33:40.245Z,5.73
2018-12-12T10:36:12.761Z,6.20
2018-12-12T10:38:45.691Z,4.57
2018-12-12T10:41:18.239Z,4.17
2018-12-12T10:43:54.383Z,4.20
2018-12-12T10:46:26.676Z,4.57
2018-12-12T10:48:59.076Z,4.73
2018-12-12T10:51:31.589Z,4.30
2018-12-12T10:54:04.576Z,4.67
2018-12-12T10:56:37.069Z,4.77
2018-12-12T10:59:09.392Z,4.83
2018-12-12T11:01:47.800Z,5.80
2018-12-12T11:04:20.431Z,5.77
2018-12-12T11:06:53.209Z,6.10
2018-12-12T11:09:31.161Z,10.53
2018-12-12T11:12:03.920Z,7.23
2018-12-12T11:14:36.373Z,5.70
2018-12-12T11:17:08.840Z,5.60
2018-12-12T11:19:41.177Z,5.57
2018-12-12T11:22:13.407Z,5.77
2018-12-12T11:24:45.772Z,6.70
2018-12-12T11:27:18.399Z,4.87
2018-12-12T11:29:51.417Z,6.10
2018-12-12T11:32:24.212Z,6.20
2018-12-12T11:34:56.788Z,5.87
2018-12-12T11:37:33.425Z,5.60
2018-12-12T11:40:05.806Z,5.67
2018-12-12T11:42:38.778Z,4.93
2018-12-12T11:45:10.987Z,5.87
2018-12-12T11:47:41.895Z,5.20
2018-12-12T11:50:14.699Z,4.60
2018-12-12T11:52:47.074Z,5.03
2018-12-12T11:55:19.391Z,4.80
2018-12-12T11:57:52.268Z,5.00
2018-12-12T12:00:28.411Z,4.90
2018-12-12T12:03:05.174Z,4.27
2018-12-12T12:05:41.518Z,4.90
2018-12-12T12:08:13.699Z,5.53
2018-12-12T12:10:46.104Z,6.00
2018-12-12T12:13:18.435Z,5.60
2018-12-12T12:15:50.595Z,6.00
2018-12-12T12:18:22.772Z,5.90
2018-12-12T12:20:55.268Z,5.60
2018-12-12T12:23:31.899Z,5.30
2018-12-12T12:26:04.100Z,5.47
2018-12-12T12:28:40.667Z,5.30
2018-12-12T12:31:11.728Z,5.77
2018-12-12T12:33:43.925Z,6.10
2018-12-12T12:36:16.764Z,6.33
2018-12-12T12:38:49.127Z,6.70
2018-12-12T12:41:25.239Z,6.83
2018-12-12T12:43:58.275Z,6.50
2018-12-12T12:46:30.543Z,6.77
2018-12-12T12:49:06.703Z,6.30
2018-12-12T12:51:39.154Z,6.73
2018-12-12T12:54:11.983Z,6.37
2018-12-12T12:56:44.137Z,8.07
2018-12-12T12:59:16.327Z,7.10
2018-12-12T13:01:48.860Z,5.90
2018-12-12T13:04:20.886Z,5.60
2018-12-12T13:06:53.095Z,6.30
2018-12-12T13:09:25.485Z,6.50
2018-12-12T13:12:02.041Z,8.77
2018-12-12T13:14:34.853Z,5.37
2018-12-12T13:17:07.223Z,5.60
2018-12-12T13:19:43.446Z,5.83
2018-12-12T13:22:16.060Z,5.67
2018-12-12T13:24:49.072Z,6.20
2018-12-12T13:27:21.163Z,5.20
2018-12-12T13:29:53.401Z,5.23
2018-12-12T13:32:26.349Z,4.47
2018-12-12T13:34:58.631Z,5.07
2018-12-12T13:37:28.704Z,5.20
2018-12-12T13:40:05.943Z,6.27
2018-12-12T13:42:38.864Z,5.20
2018-12-12T13:45:11.112Z,5.33
2018-12-12T13:47:43.236Z,5.67
2018-12-12T13:50:15.524Z,5.07
2018-12-12T13:52:47.719Z,5.00
2018-12-12T13:55:24.585Z,12.10
2018-12-12T13:57:57.754Z,6.07
2018-12-12T14:00:30.194Z,5.60
2018-12-12T14:03:02.355Z,8.10
2018-12-12T14:05:35.023Z,4.43
2018-12-12T14:08:08.024Z,4.63
2018-12-12T14:10:43.979Z,5.20
2018-12-12T14:13:21.364Z,3.33
2018-12-12T14:15:54.076Z,3.20
2018-12-12T14:18:26.755Z,3.80
2018-12-12T14:21:03.049Z,3.80
2018-12-12T14:23:39.412Z,4.10
2018-12-12T14:26:12.467Z,3.70
2018-12-12T14:28:45.395Z,4.40
2018-12-12T14:31:17.760Z,4.63
2018-12-12T14:33:49.960Z,3.40
2018-12-12T14:36:22.116Z,3.73
2018-12-12T14:38:54.292Z,3.60
2018-12-12T14:41:24.830Z,3.87
2018-12-12T14:43:56.983Z,4.03
2018-12-12T14:46:29.422Z,5.97
2018-12-12T14:49:01.956Z,12.03
2018-12-12T14:51:34.213Z,16.53
2018-12-12T14:54:06.316Z,16.07
2018-12-12T14:56:38.907Z,12.10
2018-12-12T14:59:11.015Z,10.27
2018-12-12T15:01:43.230Z,11.60
2018-12-12T15:04:19.352Z,13.87
2018-12-12T15:06:51.710Z,10.47
2018-12-12T15:09:27.947Z,7.50
2018-12-12T15:12:03.975Z,5.80
2018-12-12T15:14:40.335Z,5.53
2018-12-12T15:17:12.948Z,5.20
2018-12-12T15:19:45.836Z,5.07
2018-12-12T15:22:22.996Z,5.10
2018-12-12T15:24:55.409Z,6.10
2018-12-12T15:27:27.781Z,5.77
2018-12-12T15:30:00.098Z,5.80
2018-12-12T15:32:32.800Z,6.63
2018-12-12T15:35:05.878Z,7.40
2018-12-12T15:37:38.665Z,7.03
2018-12-12T15:40:14.903Z,6.53
2018-12-12T15:42:46.935Z,11.57
2018-12-12T15:45:19.504Z,7.37
2018-12-12T15:47:51.559Z,7.50
2018-12-12T15:50:24.251Z,7.63
2018-12-12T15:52:57.126Z,7.67
2018-12-12T15:55:34.101Z,8.17
2018-12-12T15:58:10.169Z,7.03
2018-12-12T16:00:42.624Z,7.27
2018-12-12T16:03:19.773Z,8.57
2018-12-12T16:05:52.745Z,8.10
2018-12-12T16:08:25.688Z,7.83
2018-12-12T16:10:58.499Z,7.33
2018-12-12T16:13:30.719Z,7.53
2018-12-12T16:16:03.850Z,8.07
2018-12-12T16:18:36.101Z,8.23
2018-12-12T16:21:09.292Z,8.70
2018-12-12T16:23:45.374Z,8.33
2018-12-12T16:26:21.981Z,8.50
2018-12-12T16:28:54.937Z,7.87
2018-12-12T16:31:27.347Z,8.43
2018-12-12T16:33:59.751Z,6.80
2018-12-12T16:36:32.136Z,7.70
2018-12-12T16:39:08.863Z,7.40
2018-12-12T16:41:41.495Z,9.47
2018-12-12T16:44:14.433Z,8.13
2018-12-12T16:46:46.508Z,8.57
2018-12-12T16:49:18.828Z,8.23
2018-12-12T16:51:50.872Z,8.20
2018-12-12T16:54:23.347Z,8.23
2018-12-12T16:56:55.530Z,9.60
2018-12-12T16:59:27.889Z,10.30
2018-12-12T17:02:00.084Z,10.30
2018-12-12T17:04:32.440Z,9.37
2018-12-12T17:07:04.898Z,9.57
2018-12-12T17:09:42.204Z,8.90
2018-12-12T17:12:14.528Z,8.83
2018-12-12T17:14:50.612Z,9.20
2018-12-12T17:17:22.908Z,8.23
2018-12-12T17:19:55.288Z,8.20
2018-12-12T17:22:28.308Z,8.63
2018-12-12T17:25:00.620Z,9.07
2018-12-12T17:27:36.831Z,9.53
2018-12-12T17:30:10.025Z,8.97
2018-12-12T17:32:42.968Z,10.50
2018-12-12T17:35:15.227Z,9.73
2018-12-12T17:37:45.447Z,9.53
2018-12-12T17:40:17.560Z,9.50
2018-12-12T17:42:50.057Z,9.33
2018-12-12T17:45:26.772Z,11.00
2018-12-12T17:47:59.740Z,10.33
2018-12-12T17:50:32.555Z,9.53
2018-12-12T17:53:05.533Z,10.00
2018-12-12T17:55:41.723Z,10.03
2018-12-12T17:58:14.954Z,10.53
2018-12-12T18:00:48.228Z,10.50
2018-12-12T18:03:21.400Z,11.00
2018-12-12T18:05:54.658Z,9.90
2018-12-12T18:08:27.486Z,9.93
2018-12-12T18:10:59.964Z,9.87
2018-12-12T18:13:32.366Z,10.70
2018-12-12T18:16:06.681Z,9.13
2018-12-12T18:18:39.525Z,10.20
2018-12-12T18:21:12.828Z,9.30
2018-12-12T18:23:45.245Z,9.93
2018-12-12T18:26:18.293Z,9.30
2018-12-12T18:41:32.892Z,8.83
2018-12-12T18:44:05.863Z,9.43
2018-12-12T18:46:42.265Z,9.13
2018-12-12T18:49:15.251Z,8.47
2018-12-12T18:51:54.754Z,8.63
2018-12-12T18:54:27.883Z,11.43
2018-12-12T18:57:00.860Z,10.63
2018-12-12T18:59:33.106Z,11.13
2018-12-12T19:02:06.146Z,11.07
2018-12-12T19:04:39.077Z,11.07
2018-12-12T19:07:11.828Z,10.67
2018-12-12T19:09:44.864Z,10.27
2018-12-12T19:12:17.320Z,11.50
2018-12-12T19:14:55.779Z,10.60
2018-12-12T19:17:28.325Z,9.57
2018-12-12T19:20:00.640Z,10.80
2018-12-12T19:22:36.901Z,10.97
2018-12-12T19:25:09.887Z,10.83
2018-12-12T19:27:42.587Z,11.23
2018-12-12T19:30:15.191Z,11.83
2018-12-12T19:32:47.379Z,11.80
2018-12-12T19:35:19.487Z,12.10
2018-12-12T19:37:52.365Z,12.73
2018-12-12T19:40:25.408Z,12.80
2018-12-12T19:48:01.958Z,13.87
2018-12-12T19:50:34.974Z,13.87
2018-12-12T19:53:08.270Z,13.37
2018-12-12T19:55:41.725Z,12.50
2018-12-12T19:58:14.985Z,13.53
2018-12-12T20:00:51.741Z,15.00
2018-12-12T20:03:24.850Z,14.60
2018-12-12T20:05:58.353Z,14.03
2018-12-12T20:08:31.741Z,14.37
2018-12-12T20:11:06.084Z,14.20
2018-12-12T20:13:38.904Z,14.30
2018-12-12T20:16:15.531Z,14.30
2018-12-12T20:18:48.409Z,15.07
2018-12-12T20:21:21.471Z,14.67
2018-12-12T20:23:54.004Z,15.73
2018-12-12T20:26:26.244Z,14.50
2018-12-12T20:29:02.542Z,15.07
2018-12-12T20:31:34.768Z,14.97
2018-12-12T20:34:06.940Z,16.60
2018-12-12T20:36:44.322Z,15.53
2018-12-12T20:39:17.382Z,17.77
2018-12-12T20:41:50.424Z,17.17
2018-12-12T20:44:22.622Z,17.53
2018-12-12T20:46:54.968Z,16.13
2018-12-12T20:51:59.630Z,15.90
2018-12-12T20:54:32.087Z,17.17
2018-12-12T20:57:04.288Z,15.90
2018-12-12T20:59:37.558Z,15.90
2018-12-12T21:02:10.641Z,16.57
2018-12-12T21:04:43.652Z,15.97
2018-12-12T21:07:16.973Z,17.17
2018-12-12T21:09:50.192Z,17.53
2018-12-12T21:12:22.656Z,17.10
2018-12-12T21:14:55.845Z,18.60
2018-12-12T21:17:32.271Z,19.57
2018-12-12T21:20:06.075Z,18.03
2018-12-12T21:22:39.332Z,18.83
2018-12-12T21:25:12.410Z,18.87
2018-12-12T21:27:49.823Z,17.90
2018-12-12T21:30:21.899Z,19.37
2018-12-12T21:32:54.177Z,19.17
2018-12-12T21:35:26.591Z,19.03
2018-12-12T21:37:59.174Z,19.83
2018-12-12T21:40:31.811Z,19.00
2018-12-12T21:43:04.067Z,18.83
2018-12-12T21:45:36.187Z,19.47
2018-12-12T21:48:12.591Z,18.83
2018-12-12T21:50:44.931Z,21.50
2018-12-12T21:53:15.500Z,19.73
2018-12-12T21:55:51.839Z,19.10
2018-12-12T21:58:24.280Z,20.67
2018-12-12T22:00:57.308Z,21.07
2018-12-12T22:03:29.685Z,20.60
2018-12-12T22:06:07.370Z,20.90
2018-12-12T22:08:40.037Z,20.97
2018-12-12T22:11:12.729Z,20.73
2018-12-12T22:13:44.869Z,21.20
2018-12-12T22:16:17.196Z,21.53
2018-12-12T22:18:49.996Z,21.00
2018-12-12T22:21:26.689Z,20.40
2018-12-12T22:23:58.860Z,21.17
2018-12-12T22:26:31.059Z,20.80
2018-12-12T22:29:03.415Z,19.00
2018-12-12T22:31:33.830Z,19.70
2018-12-12T22:34:10.885Z,20.93
2018-12-12T22:36:43.399Z,19.83
2018-12-12T22:39:19.676Z,21.37
2018-12-12T22:41:56.002Z,21.50
2018-12-12T22:44:29.225Z,21.27
2018-12-12T22:47:02.032Z,20.97
2018-12-12T22:49:34.392Z,20.70
2018-12-12T22:52:07.176Z,20.43
2018-12-12T22:54:39.312Z,21.07
2018-12-12T22:57:15.532Z,21.63
2018-12-12T22:59:48.711Z,22.20
2018-12-12T23:02:21.718Z,22.57
2018-12-12T23:04:57.923Z,21.70
2018-12-12T23:07:29.992Z,24.13
2018-12-12T23:10:02.084Z,22.83
2018-12-12T23:12:34.614Z,21.87
2018-12-12T23:15:07.392Z,24.10
2018-12-12T23:17:39.530Z,22.37
2018-12-12T23:20:12.151Z,22.77
2018-12-12T23:22:44.848Z,23.03
2018-12-12T23:25:17.112Z,23.33
2018-12-12T23:27:49.365Z,22.30
2018-12-12T23:30:21.472Z,24.03
2018-12-12T23:32:58.629Z,23.27
2018-12-12T23:35:31.717Z,25.80
2018-12-12T23:38:04.204Z,24.23
2018-12-12T23:40:36.935Z,25.50
2018-12-12T23:43:09.951Z,23.53
2018-12-12T23:45:42.955Z,24.43
2018-12-12T23:48:15.800Z,24.53
2018-12-12T23:50:48.112Z,25.03
2018-12-12T23:53:20.323Z,25.37
2018-12-12T23:55:52.588Z,24.67
